sensor_id;sensor_type;location;lat;lon;timestamp;temperature;humidity
26621;DHT22;14253;44.840;10.444;2023-08-20T00:00:28;25.50;99.90
26621;DHT22;14253;44.840;10.444;2023-08-20T00:02:59;25.50;99.90
26621;DHT22;14253;44.840;10.444;2023-08-20T00:05:32;25.40;99.90
26621;DHT22;14253;44.840;10.444;2023-08-20T00:07:58;25.40;99.90
26621;DHT22;14253;44.840;10.444;2023-08-20T00:10:24;25.40;99.90
26621;DHT22;14253;44.840;10.444;2023-08-20T00:12:50;25.30;99.90
26621;DHT22;14253;44.840;10.444;2023-08-20T00:15:16;25.30;99.90
26621;DHT22;14253;44.840;10.444;2023-08-20T00:17:43;25.30;99.90
26621;DHT22;14253;44.840;10.444;2023-08-20T00:20:09;25.30;99.90
26621;DHT22;14253;44.840;10.444;2023-08-20T00:22:39;25.20;99.90
26621;DHT22;14253;44.840;10.444;2023-08-20T00:25:08;25.20;99.90
26621;DHT22;14253;44.840;10.444;2023-08-20T00:27:34;25.10;99.90
26621;DHT22;14253;44.840;10.444;2023-08-20T00:30:00;25.20;99.90
26621;DHT22;14253;44.840;10.444;2023-08-20T00:32:26;25.10;99.90
26621;DHT22;14253;44.840;10.444;2023-08-20T00:34:52;25.10;99.90
26621;DHT22;14253;44.840;10.444;2023-08-20T00:37:18;25.20;99.90
26621;DHT22;14253;44.840;10.444;2023-08-20T00:39:44;25.20;99.90
26621;DHT22;14253;44.840;10.444;2023-08-20T00:42:10;25.10;99.90
26621;DHT22;14253;44.840;10.444;2023-08-20T00:44:39;25.10;99.90
26621;DHT22;14253;44.840;10.444;2023-08-20T00:47:07;25.00;99.90
26621;DHT22;14253;44.840;10.444;2023-08-20T00:49:34;25.00;99.90
26621;DHT22;14253;44.840;10.444;2023-08-20T00:52:01;24.90;99.90
26621;DHT22;14253;44.840;10.444;2023-08-20T00:54:32;24.90;99.90
26621;DHT22;14253;44.840;10.444;2023-08-20T00:56:59;24.80;99.90
26621;DHT22;14253;44.840;10.444;2023-08-20T00:59:27;24.80;99.90
26621;DHT22;14253;44.840;10.444;2023-08-20T01:01:54;24.70;99.90
26621;DHT22;14253;44.840;10.444;2023-08-20T01:04:20;24.70;99.90
26621;DHT22;14253;44.840;10.444;2023-08-20T01:11:57;24.60;99.90
26621;DHT22;14253;44.840;10.444;2023-08-20T01:14:24;24.60;99.90
26621;DHT22;14253;44.840;10.444;2023-08-20T01:16:50;24.60;99.90
26621;DHT22;14253;44.840;10.444;2023-08-20T01:19:19;24.60;99.90
26621;DHT22;14253;44.840;10.444;2023-08-20T01:30:35;24.50;99.90
26621;DHT22;14253;44.840;10.444;2023-08-20T01:33:02;24.50;99.90
26621;DHT22;14253;44.840;10.444;2023-08-20T01:35:29;24.50;99.90
26621;DHT22;14253;44.840;10.444;2023-08-20T01:38:13;24.50;99.90
26621;DHT22;14253;44.840;10.444;2023-08-20T01:40:39;24.50;99.90
26621;DHT22;14253;44.840;10.444;2023-08-20T01:43:05;24.50;99.90
26621;DHT22;14253;44.840;10.444;2023-08-20T01:45:32;24.50;99.90
26621;DHT22;14253;44.840;10.444;2023-08-20T01:47:58;24.50;99.90
26621;DHT22;14253;44.840;10.444;2023-08-20T01:50:24;24.50;99.90
26621;DHT22;14253;44.840;10.444;2023-08-20T01:52:50;24.50;99.90
26621;DHT22;14253;44.840;10.444;2023-08-20T01:55:17;24.40;99.90
26621;DHT22;14253;44.840;10.444;2023-08-20T01:57:43;24.50;99.90
26621;DHT22;14253;44.840;10.444;2023-08-20T02:00:10;24.40;99.90
26621;DHT22;14253;44.840;10.444;2023-08-20T02:02:42;24.30;99.90
26621;DHT22;14253;44.840;10.444;2023-08-20T02:05:08;24.30;99.90
26621;DHT22;14253;44.840;10.444;2023-08-20T02:07:38;24.30;99.90
26621;DHT22;14253;44.840;10.444;2023-08-20T02:10:04;24.20;99.90
26621;DHT22;14253;44.840;10.444;2023-08-20T02:12:30;24.20;99.90
26621;DHT22;14253;44.840;10.444;2023-08-20T02:14:56;24.20;99.90
26621;DHT22;14253;44.840;10.444;2023-08-20T02:17:22;24.20;99.90
26621;DHT22;14253;44.840;10.444;2023-08-20T02:19:49;24.10;99.90
26621;DHT22;14253;44.840;10.444;2023-08-20T02:22:15;24.00;99.90
26621;DHT22;14253;44.840;10.444;2023-08-20T02:24:43;24.00;99.90
26621;DHT22;14253;44.840;10.444;2023-08-20T02:27:08;23.90;99.90
26621;DHT22;14253;44.840;10.444;2023-08-20T02:29:34;23.90;1.00
26621;DHT22;14253;44.840;10.444;2023-08-20T02:32:00;23.80;1.00
26621;DHT22;14253;44.840;10.444;2023-08-20T02:34:26;23.80;1.00
26621;DHT22;14253;44.840;10.444;2023-08-20T02:36:52;23.80;1.00
26621;DHT22;14253;44.840;10.444;2023-08-20T02:39:18;23.70;1.00
26621;DHT22;14253;44.840;10.444;2023-08-20T02:41:45;23.70;1.00
26621;DHT22;14253;44.840;10.444;2023-08-20T02:44:11;23.70;1.00
26621;DHT22;14253;44.840;10.444;2023-08-20T02:46:37;23.70;1.00
26621;DHT22;14253;44.840;10.444;2023-08-20T02:49:04;23.60;1.00
26621;DHT22;14253;44.840;10.444;2023-08-20T02:51:30;23.60;1.00
26621;DHT22;14253;44.840;10.444;2023-08-20T02:53:55;23.70;1.00
26621;DHT22;14253;44.840;10.444;2023-08-20T02:56:21;23.70;1.00
26621;DHT22;14253;44.840;10.444;2023-08-20T02:58:47;23.60;1.00
26621;DHT22;14253;44.840;10.444;2023-08-20T03:01:25;23.60;1.00
26621;DHT22;14253;44.840;10.444;2023-08-20T03:03:52;23.60;1.00
26621;DHT22;14253;44.840;10.444;2023-08-20T03:06:19;23.60;1.00
26621;DHT22;14253;44.840;10.444;2023-08-20T03:08:45;23.50;1.00
26621;DHT22;14253;44.840;10.444;2023-08-20T03:11:12;23.40;1.00
26621;DHT22;14253;44.840;10.444;2023-08-20T03:13:38;23.40;1.00
26621;DHT22;14253;44.840;10.444;2023-08-20T03:16:04;23.30;1.00
26621;DHT22;14253;44.840;10.444;2023-08-20T03:18:30;23.30;1.00
26621;DHT22;14253;44.840;10.444;2023-08-20T03:20:56;23.30;1.00
26621;DHT22;14253;44.840;10.444;2023-08-20T03:23:23;23.20;1.00
26621;DHT22;14253;44.840;10.444;2023-08-20T03:25:50;23.20;1.00
26621;DHT22;14253;44.840;10.444;2023-08-20T03:28:18;23.20;1.00
26621;DHT22;14253;44.840;10.444;2023-08-20T03:30:44;23.20;1.00
26621;DHT22;14253;44.840;10.444;2023-08-20T03:33:14;23.20;1.00
26621;DHT22;14253;44.840;10.444;2023-08-20T03:35:40;23.20;1.00
26621;DHT22;14253;44.840;10.444;2023-08-20T03:38:06;23.20;1.00
26621;DHT22;14253;44.840;10.444;2023-08-20T03:40:32;23.10;1.00
26621;DHT22;14253;44.840;10.444;2023-08-20T03:42:58;23.10;1.00
26621;DHT22;14253;44.840;10.444;2023-08-20T03:45:26;23.10;1.00
26621;DHT22;14253;44.840;10.444;2023-08-20T03:47:52;23.10;1.00
26621;DHT22;14253;44.840;10.444;2023-08-20T03:50:19;23.00;1.00
26621;DHT22;14253;44.840;10.444;2023-08-20T03:52:45;23.00;1.00
26621;DHT22;14253;44.840;10.444;2023-08-20T03:55:11;23.00;1.00
26621;DHT22;14253;44.840;10.444;2023-08-20T03:57:37;23.00;1.00
26621;DHT22;14253;44.840;10.444;2023-08-20T04:00:04;22.90;1.00
26621;DHT22;14253;44.840;10.444;2023-08-20T04:02:40;22.90;1.00
26621;DHT22;14253;44.840;10.444;2023-08-20T04:05:07;22.80;1.00
26621;DHT22;14253;44.840;10.444;2023-08-20T04:07:33;22.80;1.00
26621;DHT22;14253;44.840;10.444;2023-08-20T04:09:59;22.80;1.00
26621;DHT22;14253;44.840;10.444;2023-08-20T04:12:25;22.80;1.00
26621;DHT22;14253;44.840;10.444;2023-08-20T04:14:51;22.80;1.00
26621;DHT22;14253;44.840;10.444;2023-08-20T04:17:18;22.70;1.00
26621;DHT22;14253;44.840;10.444;2023-08-20T04:19:44;22.70;1.00
26621;DHT22;14253;44.840;10.444;2023-08-20T04:22:10;22.70;1.00
26621;DHT22;14253;44.840;10.444;2023-08-20T04:24:36;22.70;1.00
26621;DHT22;14253;44.840;10.444;2023-08-20T04:27:02;22.80;1.00
26621;DHT22;14253;44.840;10.444;2023-08-20T04:29:29;22.80;1.00
26621;DHT22;14253;44.840;10.444;2023-08-20T04:31:55;22.80;1.00
26621;DHT22;14253;44.840;10.444;2023-08-20T04:34:21;22.80;1.00
26621;DHT22;14253;44.840;10.444;2023-08-20T04:36:50;22.80;1.00
26621;DHT22;14253;44.840;10.444;2023-08-20T04:39:18;22.90;1.00
26621;DHT22;14253;44.840;10.444;2023-08-20T04:41:48;22.80;1.00
26621;DHT22;14253;44.840;10.444;2023-08-20T04:44:17;22.90;1.00
26621;DHT22;14253;44.840;10.444;2023-08-20T04:46:44;22.90;1.00
26621;DHT22;14253;44.840;10.444;2023-08-20T04:49:10;23.00;1.00
26621;DHT22;14253;44.840;10.444;2023-08-20T04:51:38;23.20;1.00
26621;DHT22;14253;44.840;10.444;2023-08-20T04:54:04;23.20;1.00
26621;DHT22;14253;44.840;10.444;2023-08-20T04:56:30;23.20;1.00
26621;DHT22;14253;44.840;10.444;2023-08-20T04:58:56;23.40;1.00
26621;DHT22;14253;44.840;10.444;2023-08-20T05:01:48;23.50;1.00
26621;DHT22;14253;44.840;10.444;2023-08-20T05:04:15;23.50;1.00
26621;DHT22;14253;44.840;10.444;2023-08-20T05:06:41;23.50;1.00
26621;DHT22;14253;44.840;10.444;2023-08-20T05:09:07;23.50;1.00
26621;DHT22;14253;44.840;10.444;2023-08-20T05:11:33;23.50;1.00
26621;DHT22;14253;44.840;10.444;2023-08-20T05:14:00;23.60;1.00
26621;DHT22;14253;44.840;10.444;2023-08-20T05:16:26;23.60;1.00
26621;DHT22;14253;44.840;10.444;2023-08-20T05:18:52;23.60;1.00
26621;DHT22;14253;44.840;10.444;2023-08-20T05:21:18;23.60;1.00
26621;DHT22;14253;44.840;10.444;2023-08-20T05:23:44;23.60;1.00
26621;DHT22;14253;44.840;10.444;2023-08-20T05:26:11;23.70;1.00
26621;DHT22;14253;44.840;10.444;2023-08-20T05:28:37;23.70;1.00
26621;DHT22;14253;44.840;10.444;2023-08-20T05:31:03;23.80;1.00
26621;DHT22;14253;44.840;10.444;2023-08-20T05:33:30;23.90;1.00
26621;DHT22;14253;44.840;10.444;2023-08-20T05:35:56;23.90;99.90
26621;DHT22;14253;44.840;10.444;2023-08-20T05:38:22;23.90;1.00
26621;DHT22;14253;44.840;10.444;2023-08-20T05:40:49;23.90;1.00
26621;DHT22;14253;44.840;10.444;2023-08-20T05:43:15;23.80;99.90
26621;DHT22;14253;44.840;10.444;2023-08-20T05:45:41;23.80;1.00
26621;DHT22;14253;44.840;10.444;2023-08-20T05:48:10;23.60;1.00
26621;DHT22;14253;44.840;10.444;2023-08-20T05:50:37;23.50;1.00
26621;DHT22;14253;44.840;10.444;2023-08-20T05:53:04;23.50;1.00
26621;DHT22;14253;44.840;10.444;2023-08-20T05:55:31;23.50;1.00
26621;DHT22;14253;44.840;10.444;2023-08-20T05:57:57;23.50;1.00
26621;DHT22;14253;44.840;10.444;2023-08-20T06:00:23;23.60;1.00
26621;DHT22;14253;44.840;10.444;2023-08-20T06:02:49;23.70;1.00
26621;DHT22;14253;44.840;10.444;2023-08-20T06:05:16;23.80;1.00
26621;DHT22;14253;44.840;10.444;2023-08-20T06:07:42;23.90;1.00
26621;DHT22;14253;44.840;10.444;2023-08-20T06:10:08;24.10;99.90
26621;DHT22;14253;44.840;10.444;2023-08-20T06:12:34;24.20;99.90
26621;DHT22;14253;44.840;10.444;2023-08-20T06:15:00;24.20;99.90
26621;DHT22;14253;44.840;10.444;2023-08-20T06:17:26;24.20;99.90
26621;DHT22;14253;44.840;10.444;2023-08-20T06:19:52;24.40;99.90
26621;DHT22;14253;44.840;10.444;2023-08-20T06:22:18;24.70;99.90
26621;DHT22;14253;44.840;10.444;2023-08-20T06:24:44;24.80;99.90
26621;DHT22;14253;44.840;10.444;2023-08-20T06:27:10;25.10;99.90
26621;DHT22;14253;44.840;10.444;2023-08-20T06:29:36;25.40;99.90
26621;DHT22;14253;44.840;10.444;2023-08-20T06:32:03;25.90;99.90
26621;DHT22;14253;44.840;10.444;2023-08-20T06:34:29;26.20;99.90
26621;DHT22;14253;44.840;10.444;2023-08-20T06:36:55;26.50;99.90
26621;DHT22;14253;44.840;10.444;2023-08-20T06:39:21;26.90;99.90
26621;DHT22;14253;44.840;10.444;2023-08-20T06:41:47;27.30;99.90
26621;DHT22;14253;44.840;10.444;2023-08-20T06:44:19;27.60;99.90
26621;DHT22;14253;44.840;10.444;2023-08-20T06:46:45;27.90;99.90
26621;DHT22;14253;44.840;10.444;2023-08-20T06:49:11;28.20;99.90
26621;DHT22;14253;44.840;10.444;2023-08-20T06:51:37;28.50;99.90
26621;DHT22;14253;44.840;10.444;2023-08-20T06:54:04;28.90;99.90
26621;DHT22;14253;44.840;10.444;2023-08-20T06:56:32;29.10;99.90
26621;DHT22;14253;44.840;10.444;2023-08-20T06:58:58;29.30;99.90
26621;DHT22;14253;44.840;10.444;2023-08-20T07:01:24;29.50;99.90
26621;DHT22;14253;44.840;10.444;2023-08-20T07:03:50;29.60;99.90
26621;DHT22;14253;44.840;10.444;2023-08-20T07:06:18;29.70;99.90
26621;DHT22;14253;44.840;10.444;2023-08-20T07:08:44;29.80;99.90
26621;DHT22;14253;44.840;10.444;2023-08-20T07:11:10;29.90;99.90
26621;DHT22;14253;44.840;10.444;2023-08-20T07:13:37;30.20;99.90
26621;DHT22;14253;44.840;10.444;2023-08-20T07:16:03;30.30;99.90
26621;DHT22;14253;44.840;10.444;2023-08-20T07:18:30;30.60;99.90
26621;DHT22;14253;44.840;10.444;2023-08-20T07:20:56;30.80;99.90
26621;DHT22;14253;44.840;10.444;2023-08-20T07:23:22;31.00;99.90
26621;DHT22;14253;44.840;10.444;2023-08-20T07:25:48;31.10;99.90
26621;DHT22;14253;44.840;10.444;2023-08-20T07:28:17;31.40;99.90
26621;DHT22;14253;44.840;10.444;2023-08-20T07:31:03;31.60;99.90
26621;DHT22;14253;44.840;10.444;2023-08-20T07:33:29;31.60;99.90
26621;DHT22;14253;44.840;10.444;2023-08-20T07:35:55;31.80;99.90
26621;DHT22;14253;44.840;10.444;2023-08-20T07:38:21;32.10;99.90
26621;DHT22;14253;44.840;10.444;2023-08-20T07:40:47;32.10;99.90
26621;DHT22;14253;44.840;10.444;2023-08-20T07:43:14;32.20;99.90
26621;DHT22;14253;44.840;10.444;2023-08-20T07:45:40;32.10;99.90
26621;DHT22;14253;44.840;10.444;2023-08-20T07:48:06;31.90;99.90
26621;DHT22;14253;44.840;10.444;2023-08-20T07:50:32;32.20;99.90
26621;DHT22;14253;44.840;10.444;2023-08-20T07:52:58;32.10;99.90
26621;DHT22;14253;44.840;10.444;2023-08-20T07:55:24;32.30;99.90
26621;DHT22;14253;44.840;10.444;2023-08-20T07:57:50;32.50;99.90
26621;DHT22;14253;44.840;10.444;2023-08-20T08:00:18;32.40;99.90
26621;DHT22;14253;44.840;10.444;2023-08-20T08:02:44;32.40;99.90
26621;DHT22;14253;44.840;10.444;2023-08-20T08:05:10;32.50;99.90
26621;DHT22;14253;44.840;10.444;2023-08-20T08:07:36;32.50;99.90
26621;DHT22;14253;44.840;10.444;2023-08-20T08:10:02;32.60;99.90
26621;DHT22;14253;44.840;10.444;2023-08-20T08:12:28;32.70;99.90
26621;DHT22;14253;44.840;10.444;2023-08-20T08:14:54;32.70;99.90
26621;DHT22;14253;44.840;10.444;2023-08-20T08:17:20;32.60;99.90
26621;DHT22;14253;44.840;10.444;2023-08-20T08:19:46;32.70;99.90
26621;DHT22;14253;44.840;10.444;2023-08-20T08:22:12;32.80;99.90
26621;DHT22;14253;44.840;10.444;2023-08-20T08:24:37;33.00;99.90
26621;DHT22;14253;44.840;10.444;2023-08-20T08:27:04;33.20;99.90
26621;DHT22;14253;44.840;10.444;2023-08-20T08:29:29;33.40;99.90
26621;DHT22;14253;44.840;10.444;2023-08-20T08:31:55;33.50;99.90
26621;DHT22;14253;44.840;10.444;2023-08-20T08:34:21;33.40;99.90
26621;DHT22;14253;44.840;10.444;2023-08-20T08:36:47;33.00;99.90
26621;DHT22;14253;44.840;10.444;2023-08-20T08:39:21;32.90;99.90
26621;DHT22;14253;44.840;10.444;2023-08-20T08:41:54;33.00;99.90
26621;DHT22;14253;44.840;10.444;2023-08-20T08:44:21;33.20;99.90
26621;DHT22;14253;44.840;10.444;2023-08-20T08:46:49;33.30;99.90
26621;DHT22;14253;44.840;10.444;2023-08-20T08:49:17;33.50;99.90
26621;DHT22;14253;44.840;10.444;2023-08-20T08:51:45;33.60;99.90
26621;DHT22;14253;44.840;10.444;2023-08-20T08:54:13;33.30;99.90
26621;DHT22;14253;44.840;10.444;2023-08-20T08:56:39;33.40;99.90
26621;DHT22;14253;44.840;10.444;2023-08-20T08:59:05;33.30;99.90
26621;DHT22;14253;44.840;10.444;2023-08-20T09:01:31;33.40;99.90
26621;DHT22;14253;44.840;10.444;2023-08-20T09:03:57;33.50;99.90
26621;DHT22;14253;44.840;10.444;2023-08-20T09:06:23;33.60;99.90
26621;DHT22;14253;44.840;10.444;2023-08-20T09:08:49;33.60;99.90
26621;DHT22;14253;44.840;10.444;2023-08-20T09:11:16;33.60;99.90
26621;DHT22;14253;44.840;10.444;2023-08-20T09:13:42;33.70;99.90
26621;DHT22;14253;44.840;10.444;2023-08-20T09:16:11;33.60;99.90
26621;DHT22;14253;44.840;10.444;2023-08-20T09:18:44;33.70;99.90
26621;DHT22;14253;44.840;10.444;2023-08-20T09:21:12;33.90;99.90
26621;DHT22;14253;44.840;10.444;2023-08-20T09:23:38;33.90;99.90
26621;DHT22;14253;44.840;10.444;2023-08-20T09:26:06;34.20;99.90
26621;DHT22;14253;44.840;10.444;2023-08-20T09:28:43;34.40;99.90
26621;DHT22;14253;44.840;10.444;2023-08-20T09:31:09;34.30;99.90
26621;DHT22;14253;44.840;10.444;2023-08-20T09:33:35;34.50;99.90
26621;DHT22;14253;44.840;10.444;2023-08-20T09:36:03;34.40;99.90
26621;DHT22;14253;44.840;10.444;2023-08-20T09:38:29;34.60;99.90
26621;DHT22;14253;44.840;10.444;2023-08-20T09:40:55;34.70;99.90
26621;DHT22;14253;44.840;10.444;2023-08-20T09:43:25;34.80;99.90
26621;DHT22;14253;44.840;10.444;2023-08-20T09:45:55;34.90;99.90
26621;DHT22;14253;44.840;10.444;2023-08-20T09:48:24;35.10;99.90
26621;DHT22;14253;44.840;10.444;2023-08-20T09:50:53;35.00;99.90
26621;DHT22;14253;44.840;10.444;2023-08-20T09:56:17;35.30;99.90
26621;DHT22;14253;44.840;10.444;2023-08-20T09:58:45;35.20;99.90
26621;DHT22;14253;44.840;10.444;2023-08-20T10:01:19;35.40;99.90
26621;DHT22;14253;44.840;10.444;2023-08-20T10:03:46;35.40;99.90
26621;DHT22;14253;44.840;10.444;2023-08-20T10:06:26;35.30;99.90
26621;DHT22;14253;44.840;10.444;2023-08-20T10:08:53;35.30;99.90
26621;DHT22;14253;44.840;10.444;2023-08-20T10:11:20;35.30;99.90
26621;DHT22;14253;44.840;10.444;2023-08-20T10:13:46;35.50;99.90
26621;DHT22;14253;44.840;10.444;2023-08-20T10:16:12;35.90;99.90
26621;DHT22;14253;44.840;10.444;2023-08-20T10:18:40;36.10;99.90
26621;DHT22;14253;44.840;10.444;2023-08-20T10:21:06;36.10;99.90
26621;DHT22;14253;44.840;10.444;2023-08-20T10:23:40;36.00;99.90
26621;DHT22;14253;44.840;10.444;2023-08-20T10:26:11;35.80;99.90
26621;DHT22;14253;44.840;10.444;2023-08-20T10:28:37;35.80;99.90
26621;DHT22;14253;44.840;10.444;2023-08-20T10:31:11;36.00;99.90
26621;DHT22;14253;44.840;10.444;2023-08-20T10:36:17;35.60;99.90
26621;DHT22;14253;44.840;10.444;2023-08-20T10:38:47;35.10;99.90
26621;DHT22;14253;44.840;10.444;2023-08-20T10:41:13;35.20;99.90
26621;DHT22;14253;44.840;10.444;2023-08-20T10:43:49;35.50;99.90
26621;DHT22;14253;44.840;10.444;2023-08-20T10:46:24;35.80;99.90
26621;DHT22;14253;44.840;10.444;2023-08-20T10:48:53;36.10;99.90
26621;DHT22;14253;44.840;10.444;2023-08-20T10:51:35;36.20;99.90
26621;DHT22;14253;44.840;10.444;2023-08-20T10:56:47;36.20;99.90
26621;DHT22;14253;44.840;10.444;2023-08-20T11:01:48;36.50;99.90
26621;DHT22;14253;44.840;10.444;2023-08-20T11:04:19;36.50;99.90
26621;DHT22;14253;44.840;10.444;2023-08-20T11:06:46;36.50;99.90
26621;DHT22;14253;44.840;10.444;2023-08-20T11:09:15;36.50;99.90
26621;DHT22;14253;44.840;10.444;2023-08-20T11:11:42;36.40;99.90
26621;DHT22;14253;44.840;10.444;2023-08-20T11:14:12;36.30;99.90
26621;DHT22;14253;44.840;10.444;2023-08-20T11:16:40;36.40;99.90
26621;DHT22;14253;44.840;10.444;2023-08-20T11:19:06;36.40;99.90
26621;DHT22;14253;44.840;10.444;2023-08-20T11:21:36;36.50;99.90
26621;DHT22;14253;44.840;10.444;2023-08-20T11:24:03;36.50;99.90
26621;DHT22;14253;44.840;10.444;2023-08-20T11:26:29;36.80;99.90
26621;DHT22;14253;44.840;10.444;2023-08-20T11:28:55;36.80;99.90
26621;DHT22;14253;44.840;10.444;2023-08-20T11:31:22;37.10;99.90
26621;DHT22;14253;44.840;10.444;2023-08-20T11:33:49;37.20;99.90
26621;DHT22;14253;44.840;10.444;2023-08-20T11:36:16;37.20;99.90
26621;DHT22;14253;44.840;10.444;2023-08-20T11:38:52;37.10;99.90
26621;DHT22;14253;44.840;10.444;2023-08-20T11:41:22;37.10;99.90
26621;DHT22;14253;44.840;10.444;2023-08-20T11:43:49;37.10;99.90
26621;DHT22;14253;44.840;10.444;2023-08-20T11:46:17;37.00;99.90
26621;DHT22;14253;44.840;10.444;2023-08-20T11:49:00;37.00;99.90
26621;DHT22;14253;44.840;10.444;2023-08-20T11:51:52;37.20;99.90
26621;DHT22;14253;44.840;10.444;2023-08-20T11:54:18;37.10;99.90
26621;DHT22;14253;44.840;10.444;2023-08-20T11:56:45;37.10;99.90
26621;DHT22;14253;44.840;10.444;2023-08-20T11:59:14;37.30;99.90
26621;DHT22;14253;44.840;10.444;2023-08-20T12:01:42;37.30;99.90
26621;DHT22;14253;44.840;10.444;2023-08-20T12:04:08;37.20;99.90
26621;DHT22;14253;44.840;10.444;2023-08-20T12:06:36;37.10;99.90
26621;DHT22;14253;44.840;10.444;2023-08-20T12:09:22;37.40;99.90
26621;DHT22;14253;44.840;10.444;2023-08-20T12:11:49;37.50;99.90
26621;DHT22;14253;44.840;10.444;2023-08-20T12:14:19;37.40;99.90
26621;DHT22;14253;44.840;10.444;2023-08-20T12:16:46;37.30;99.90
26621;DHT22;14253;44.840;10.444;2023-08-20T12:19:12;37.40;99.90
26621;DHT22;14253;44.840;10.444;2023-08-20T12:21:40;37.50;99.90
26621;DHT22;14253;44.840;10.444;2023-08-20T12:24:09;37.40;99.90
26621;DHT22;14253;44.840;10.444;2023-08-20T12:26:36;37.50;99.90
26621;DHT22;14253;44.840;10.444;2023-08-20T12:29:02;37.40;99.90
26621;DHT22;14253;44.840;10.444;2023-08-20T12:31:29;37.50;99.90
26621;DHT22;14253;44.840;10.444;2023-08-20T12:33:55;37.50;99.90
26621;DHT22;14253;44.840;10.444;2023-08-20T12:36:21;37.60;99.90
26621;DHT22;14253;44.840;10.444;2023-08-20T12:38:47;37.80;99.90
26621;DHT22;14253;44.840;10.444;2023-08-20T12:41:12;37.80;99.90
26621;DHT22;14253;44.840;10.444;2023-08-20T12:43:38;38.00;99.90
26621;DHT22;14253;44.840;10.444;2023-08-20T12:46:04;37.70;99.90
26621;DHT22;14253;44.840;10.444;2023-08-20T12:48:30;37.70;99.90
26621;DHT22;14253;44.840;10.444;2023-08-20T12:50:57;37.60;99.90
26621;DHT22;14253;44.840;10.444;2023-08-20T12:53:24;37.40;99.90
26621;DHT22;14253;44.840;10.444;2023-08-20T12:55:50;37.50;99.90
26621;DHT22;14253;44.840;10.444;2023-08-20T12:58:16;37.50;99.90
26621;DHT22;14253;44.840;10.444;2023-08-20T13:00:42;37.60;99.90
26621;DHT22;14253;44.840;10.444;2023-08-20T13:03:08;37.40;99.90
26621;DHT22;14253;44.840;10.444;2023-08-20T13:05:35;37.20;99.90
26621;DHT22;14253;44.840;10.444;2023-08-20T13:08:01;37.10;99.90
26621;DHT22;14253;44.840;10.444;2023-08-20T13:10:27;37.10;99.90
26621;DHT22;14253;44.840;10.444;2023-08-20T13:12:59;37.20;99.90
26621;DHT22;14253;44.840;10.444;2023-08-20T13:15:26;37.30;99.90
26621;DHT22;14253;44.840;10.444;2023-08-20T13:17:53;37.50;99.90
26621;DHT22;14253;44.840;10.444;2023-08-20T13:20:19;37.50;99.90
26621;DHT22;14253;44.840;10.444;2023-08-20T13:22:51;37.70;99.90
26621;DHT22;14253;44.840;10.444;2023-08-20T13:25:17;37.40;99.90
26621;DHT22;14253;44.840;10.444;2023-08-20T13:27:44;37.20;99.90
26621;DHT22;14253;44.840;10.444;2023-08-20T13:30:10;37.30;99.90
26621;DHT22;14253;44.840;10.444;2023-08-20T13:32:37;37.40;99.90
26621;DHT22;14253;44.840;10.444;2023-08-20T13:35:03;37.30;99.90
26621;DHT22;14253;44.840;10.444;2023-08-20T13:37:33;37.20;99.90
26621;DHT22;14253;44.840;10.444;2023-08-20T13:39:59;37.20;99.90
26621;DHT22;14253;44.840;10.444;2023-08-20T13:42:26;37.30;99.90
26621;DHT22;14253;44.840;10.444;2023-08-20T13:44:52;37.30;99.90
26621;DHT22;14253;44.840;10.444;2023-08-20T13:47:18;37.30;99.90
26621;DHT22;14253;44.840;10.444;2023-08-20T13:49:44;37.30;99.90
26621;DHT22;14253;44.840;10.444;2023-08-20T13:52:10;37.40;99.90
26621;DHT22;14253;44.840;10.444;2023-08-20T13:54:36;37.50;99.90
26621;DHT22;14253;44.840;10.444;2023-08-20T13:57:03;37.70;99.90
26621;DHT22;14253;44.840;10.444;2023-08-20T13:59:32;37.60;99.90
26621;DHT22;14253;44.840;10.444;2023-08-20T14:01:58;37.60;99.90
26621;DHT22;14253;44.840;10.444;2023-08-20T14:04:24;37.70;99.90
26621;DHT22;14253;44.840;10.444;2023-08-20T14:06:50;37.80;99.90
26621;DHT22;14253;44.840;10.444;2023-08-20T14:09:16;37.70;99.90
26621;DHT22;14253;44.840;10.444;2023-08-20T14:11:44;37.40;99.90
26621;DHT22;14253;44.840;10.444;2023-08-20T14:14:10;37.20;99.90
26621;DHT22;14253;44.840;10.444;2023-08-20T14:16:36;37.30;99.90
26621;DHT22;14253;44.840;10.444;2023-08-20T14:19:02;37.40;99.90
26621;DHT22;14253;44.840;10.444;2023-08-20T14:21:28;37.60;99.90
26621;DHT22;14253;44.840;10.444;2023-08-20T14:23:54;37.60;99.90
26621;DHT22;14253;44.840;10.444;2023-08-20T14:26:20;37.70;99.90
26621;DHT22;14253;44.840;10.444;2023-08-20T14:28:46;37.70;99.90
26621;DHT22;14253;44.840;10.444;2023-08-20T14:31:14;37.90;99.90
26621;DHT22;14253;44.840;10.444;2023-08-20T14:33:40;37.80;99.90
26621;DHT22;14253;44.840;10.444;2023-08-20T14:36:06;37.50;99.90
26621;DHT22;14253;44.840;10.444;2023-08-20T14:38:32;37.50;99.90
26621;DHT22;14253;44.840;10.444;2023-08-20T14:41:02;37.40;99.90
26621;DHT22;14253;44.840;10.444;2023-08-20T14:43:29;37.50;99.90
26621;DHT22;14253;44.840;10.444;2023-08-20T14:45:56;37.30;99.90
26621;DHT22;14253;44.840;10.444;2023-08-20T14:48:23;37.20;99.90
26621;DHT22;14253;44.840;10.444;2023-08-20T14:50:52;37.30;99.90
26621;DHT22;14253;44.840;10.444;2023-08-20T14:53:19;37.40;99.90
26621;DHT22;14253;44.840;10.444;2023-08-20T14:55:46;37.60;99.90
26621;DHT22;14253;44.840;10.444;2023-08-20T14:58:12;37.50;99.90
26621;DHT22;14253;44.840;10.444;2023-08-20T15:00:38;37.40;99.90
26621;DHT22;14253;44.840;10.444;2023-08-20T15:03:05;37.30;99.90
26621;DHT22;14253;44.840;10.444;2023-08-20T15:05:32;37.40;99.90
26621;DHT22;14253;44.840;10.444;2023-08-20T15:07:58;37.50;99.90
26621;DHT22;14253;44.840;10.444;2023-08-20T15:10:24;37.50;99.90
26621;DHT22;14253;44.840;10.444;2023-08-20T15:12:50;37.40;99.90
26621;DHT22;14253;44.840;10.444;2023-08-20T15:15:16;37.30;99.90
26621;DHT22;14253;44.840;10.444;2023-08-20T15:17:42;37.20;99.90
26621;DHT22;14253;44.840;10.444;2023-08-20T15:20:08;37.30;99.90
26621;DHT22;14253;44.840;10.444;2023-08-20T15:22:37;37.20;99.90
26621;DHT22;14253;44.840;10.444;2023-08-20T15:25:03;37.20;99.90
26621;DHT22;14253;44.840;10.444;2023-08-20T15:27:33;37.10;99.90
26621;DHT22;14253;44.840;10.444;2023-08-20T15:30:00;37.40;99.90
26621;DHT22;14253;44.840;10.444;2023-08-20T15:32:28;37.80;99.90
26621;DHT22;14253;44.840;10.444;2023-08-20T15:34:54;38.00;99.90
26621;DHT22;14253;44.840;10.444;2023-08-20T15:37:20;38.10;99.90
26621;DHT22;14253;44.840;10.444;2023-08-20T15:39:46;38.50;99.90
26621;DHT22;14253;44.840;10.444;2023-08-20T15:42:12;38.60;99.90
26621;DHT22;14253;44.840;10.444;2023-08-20T15:44:39;38.90;99.90